sensor_id;sensor_type;location;lat;lon;timestamp;temperature;humidity
27940;DHT22;15275;51.716;14.324;2023-02-19T00:01:35;10.60;85.50
27940;DHT22;15275;51.716;14.324;2023-02-19T00:04:08;10.60;85.50
27940;DHT22;15275;51.716;14.324;2023-02-19T00:06:37;10.60;85.60
27940;DHT22;15275;51.716;14.324;2023-02-19T00:09:03;10.50;85.50
27940;DHT22;15275;51.716;14.324;2023-02-19T00:11:31;10.60;85.50
27940;DHT22;15275;51.716;14.324;2023-02-19T00:13:59;10.50;85.50
27940;DHT22;15275;51.716;14.324;2023-02-19T00:18:58;10.50;85.40
27940;DHT22;15275;51.716;14.324;2023-02-19T00:21:25;10.50;85.50
27940;DHT22;15275;51.716;14.324;2023-02-19T00:24:02;10.40;85.50
27940;DHT22;15275;51.716;14.324;2023-02-19T00:26:30;10.40;85.50
27940;DHT22;15275;51.716;14.324;2023-02-19T00:28:56;10.40;85.50
27940;DHT22;15275;51.716;14.324;2023-02-19T00:31:28;10.40;85.60
27940;DHT22;15275;51.716;14.324;2023-02-19T00:33:57;10.30;85.70
27940;DHT22;15275;51.716;14.324;2023-02-19T00:36:25;10.30;85.70
27940;DHT22;15275;51.716;14.324;2023-02-19T00:38:52;10.30;85.70
27940;DHT22;15275;51.716;14.324;2023-02-19T00:41:19;10.30;85.70
27940;DHT22;15275;51.716;14.324;2023-02-19T00:44:05;10.30;85.70
27940;DHT22;15275;51.716;14.324;2023-02-19T00:46:38;10.30;85.90
27940;DHT22;15275;51.716;14.324;2023-02-19T00:49:09;10.20;86.00
27940;DHT22;15275;51.716;14.324;2023-02-19T00:51:39;10.20;86.00
27940;DHT22;15275;51.716;14.324;2023-02-19T00:54:05;10.20;86.00
27940;DHT22;15275;51.716;14.324;2023-02-19T00:56:31;10.20;86.00
27940;DHT22;15275;51.716;14.324;2023-02-19T00:58:57;10.20;86.00
27940;DHT22;15275;51.716;14.324;2023-02-19T01:01:23;10.20;86.00
27940;DHT22;15275;51.716;14.324;2023-02-19T01:03:49;10.20;86.10
27940;DHT22;15275;51.716;14.324;2023-02-19T01:06:17;10.20;86.10
27940;DHT22;15275;51.716;14.324;2023-02-19T01:08:43;10.20;86.20
27940;DHT22;15275;51.716;14.324;2023-02-19T01:11:10;10.20;86.20
27940;DHT22;15275;51.716;14.324;2023-02-19T01:13:37;10.20;86.20
27940;DHT22;15275;51.716;14.324;2023-02-19T01:16:13;10.20;86.20
27940;DHT22;15275;51.716;14.324;2023-02-19T01:18:44;10.20;86.20
27940;DHT22;15275;51.716;14.324;2023-02-19T01:21:17;10.20;86.20
27940;DHT22;15275;51.716;14.324;2023-02-19T01:23:48;10.20;86.30
27940;DHT22;15275;51.716;14.324;2023-02-19T01:26:17;10.20;86.30
27940;DHT22;15275;51.716;14.324;2023-02-19T01:28:45;10.20;86.30
27940;DHT22;15275;51.716;14.324;2023-02-19T01:31:15;10.20;86.30
27940;DHT22;15275;51.716;14.324;2023-02-19T01:33:44;10.20;86.40
27940;DHT22;15275;51.716;14.324;2023-02-19T01:36:11;10.20;86.30
27940;DHT22;15275;51.716;14.324;2023-02-19T01:38:37;10.20;86.20
27940;DHT22;15275;51.716;14.324;2023-02-19T01:41:05;10.20;86.20
27940;DHT22;15275;51.716;14.324;2023-02-19T01:43:33;10.20;86.20
27940;DHT22;15275;51.716;14.324;2023-02-19T01:46:00;10.20;86.20
27940;DHT22;15275;51.716;14.324;2023-02-19T01:48:30;10.20;86.20
27940;DHT22;15275;51.716;14.324;2023-02-19T01:51:08;10.20;86.20
27940;DHT22;15275;51.716;14.324;2023-02-19T01:53:39;10.20;86.10
27940;DHT22;15275;51.716;14.324;2023-02-19T01:56:07;10.20;86.10
27940;DHT22;15275;51.716;14.324;2023-02-19T01:58:35;10.20;86.10
27940;DHT22;15275;51.716;14.324;2023-02-19T02:01:04;10.20;86.20
27940;DHT22;15275;51.716;14.324;2023-02-19T02:03:32;10.20;86.20
27940;DHT22;15275;51.716;14.324;2023-02-19T02:08:31;10.20;86.10
27940;DHT22;15275;51.716;14.324;2023-02-19T02:11:17;10.20;86.10
27940;DHT22;15275;51.716;14.324;2023-02-19T02:13:43;10.20;86.10
27940;DHT22;15275;51.716;14.324;2023-02-19T02:16:16;10.20;86.10
27940;DHT22;15275;51.716;14.324;2023-02-19T02:30:47;10.20;86.10
27940;DHT22;15275;51.716;14.324;2023-02-19T02:33:48;10.30;86.30
27940;DHT22;15275;51.716;14.324;2023-02-19T02:36:40;10.30;86.20
27940;DHT22;15275;51.716;14.324;2023-02-19T02:39:11;10.30;86.20
27940;DHT22;15275;51.716;14.324;2023-02-19T02:41:43;10.30;86.20
27940;DHT22;15275;51.716;14.324;2023-02-19T02:44:10;10.30;86.30
27940;DHT22;15275;51.716;14.324;2023-02-19T02:46:40;10.30;86.40
27940;DHT22;15275;51.716;14.324;2023-02-19T02:49:25;10.30;86.50
27940;DHT22;15275;51.716;14.324;2023-02-19T02:51:52;10.40;86.30
27940;DHT22;15275;51.716;14.324;2023-02-19T02:54:29;10.40;86.40
27940;DHT22;15275;51.716;14.324;2023-02-19T02:57:16;10.40;86.30
27940;DHT22;15275;51.716;14.324;2023-02-19T02:59:43;10.40;86.30
27940;DHT22;15275;51.716;14.324;2023-02-19T03:02:16;10.40;86.20
27940;DHT22;15275;51.716;14.324;2023-02-19T03:05:00;10.50;86.20
27940;DHT22;15275;51.716;14.324;2023-02-19T03:07:53;10.50;86.20
27940;DHT22;15275;51.716;14.324;2023-02-19T03:10:27;10.50;86.10
27940;DHT22;15275;51.716;14.324;2023-02-19T03:12:58;10.50;86.10
27940;DHT22;15275;51.716;14.324;2023-02-19T03:15:50;10.60;86.10
27940;DHT22;15275;51.716;14.324;2023-02-19T03:18:39;10.50;86.00
27940;DHT22;15275;51.716;14.324;2023-02-19T03:21:27;10.50;86.00
27940;DHT22;15275;51.716;14.324;2023-02-19T03:23:55;10.60;86.00
27940;DHT22;15275;51.716;14.324;2023-02-19T03:26:41;10.50;85.90
27940;DHT22;15275;51.716;14.324;2023-02-19T03:29:08;10.50;85.80
27940;DHT22;15275;51.716;14.324;2023-02-19T03:31:55;10.50;85.80
27940;DHT22;15275;51.716;14.324;2023-02-19T03:34:45;10.50;85.80
27940;DHT22;15275;51.716;14.324;2023-02-19T03:37:16;10.50;85.70
27940;DHT22;15275;51.716;14.324;2023-02-19T03:39:48;10.50;85.90
27940;DHT22;15275;51.716;14.324;2023-02-19T03:42:37;10.50;85.80
27940;DHT22;15275;51.716;14.324;2023-02-19T03:45:27;10.50;85.60
27940;DHT22;15275;51.716;14.324;2023-02-19T03:51:06;10.40;85.90
27940;DHT22;15275;51.716;14.324;2023-02-19T03:56:38;10.40;86.00
27940;DHT22;15275;51.716;14.324;2023-02-19T04:02:34;10.40;85.90
27940;DHT22;15275;51.716;14.324;2023-02-19T04:05:30;10.40;85.60
27940;DHT22;15275;51.716;14.324;2023-02-19T04:08:06;10.30;85.70
27940;DHT22;15275;51.716;14.324;2023-02-19T04:10:37;10.30;85.60
27940;DHT22;15275;51.716;14.324;2023-02-19T04:13:25;10.30;85.60
27940;DHT22;15275;51.716;14.324;2023-02-19T04:15:57;10.20;85.30
27940;DHT22;15275;51.716;14.324;2023-02-19T04:18:33;10.20;85.60
27940;DHT22;15275;51.716;14.324;2023-02-19T04:21:02;10.20;85.60
27940;DHT22;15275;51.716;14.324;2023-02-19T04:23:34;10.10;85.50
27940;DHT22;15275;51.716;14.324;2023-02-19T04:26:03;10.10;85.50
27940;DHT22;15275;51.716;14.324;2023-02-19T04:28:30;10.00;85.60
27940;DHT22;15275;51.716;14.324;2023-02-19T04:30:57;10.00;85.50
27940;DHT22;15275;51.716;14.324;2023-02-19T04:33:23;10.00;85.40
27940;DHT22;15275;51.716;14.324;2023-02-19T04:35:48;9.90;85.50
27940;DHT22;15275;51.716;14.324;2023-02-19T04:38:14;9.80;85.50
27940;DHT22;15275;51.716;14.324;2023-02-19T04:40:40;9.80;85.50
27940;DHT22;15275;51.716;14.324;2023-02-19T04:43:06;9.70;85.50
27940;DHT22;15275;51.716;14.324;2023-02-19T04:45:31;9.70;85.80
27940;DHT22;15275;51.716;14.324;2023-02-19T04:47:57;9.60;85.70
27940;DHT22;15275;51.716;14.324;2023-02-19T04:50:24;9.60;85.50
27940;DHT22;15275;51.716;14.324;2023-02-19T04:52:50;9.50;85.40
27940;DHT22;15275;51.716;14.324;2023-02-19T04:55:16;9.40;85.50
27940;DHT22;15275;51.716;14.324;2023-02-19T04:57:42;9.40;85.60
27940;DHT22;15275;51.716;14.324;2023-02-19T05:00:08;9.30;85.60
27940;DHT22;15275;51.716;14.324;2023-02-19T05:02:35;9.30;85.80
27940;DHT22;15275;51.716;14.324;2023-02-19T05:05:00;9.20;86.00
27940;DHT22;15275;51.716;14.324;2023-02-19T05:07:26;9.20;86.00
27940;DHT22;15275;51.716;14.324;2023-02-19T05:09:52;9.10;86.20
27940;DHT22;15275;51.716;14.324;2023-02-19T05:12:18;9.10;86.40
27940;DHT22;15275;51.716;14.324;2023-02-19T05:14:44;9.10;86.50
27940;DHT22;15275;51.716;14.324;2023-02-19T05:17:09;9.00;86.50
27940;DHT22;15275;51.716;14.324;2023-02-19T05:19:35;9.00;86.60
27940;DHT22;15275;51.716;14.324;2023-02-19T05:22:01;9.00;86.60
27940;DHT22;15275;51.716;14.324;2023-02-19T05:24:27;8.90;86.60
27940;DHT22;15275;51.716;14.324;2023-02-19T05:26:54;8.90;86.60
27940;DHT22;15275;51.716;14.324;2023-02-19T05:29:20;8.90;86.50
27940;DHT22;15275;51.716;14.324;2023-02-19T05:31:45;8.90;86.30
27940;DHT22;15275;51.716;14.324;2023-02-19T05:34:11;8.80;86.20
27940;DHT22;15275;51.716;14.324;2023-02-19T05:36:38;8.80;86.20
27940;DHT22;15275;51.716;14.324;2023-02-19T05:39:04;8.80;86.20
27940;DHT22;15275;51.716;14.324;2023-02-19T05:41:31;8.70;86.10
27940;DHT22;15275;51.716;14.324;2023-02-19T05:43:58;8.70;86.20
27940;DHT22;15275;51.716;14.324;2023-02-19T05:46:26;8.60;86.20
27940;DHT22;15275;51.716;14.324;2023-02-19T05:48:54;8.60;86.40
27940;DHT22;15275;51.716;14.324;2023-02-19T05:51:22;8.50;86.50
27940;DHT22;15275;51.716;14.324;2023-02-19T05:53:49;8.50;86.60
27940;DHT22;15275;51.716;14.324;2023-02-19T05:59:20;8.50;86.80
27940;DHT22;15275;51.716;14.324;2023-02-19T06:01:49;8.40;86.70
27940;DHT22;15275;51.716;14.324;2023-02-19T06:04:16;8.40;86.40
27940;DHT22;15275;51.716;14.324;2023-02-19T06:06:45;8.30;85.90
27940;DHT22;15275;51.716;14.324;2023-02-19T06:09:11;8.30;85.40
27940;DHT22;15275;51.716;14.324;2023-02-19T06:11:39;8.20;84.80
27940;DHT22;15275;51.716;14.324;2023-02-19T06:14:05;8.00;84.40
27940;DHT22;15275;51.716;14.324;2023-02-19T06:16:31;7.90;84.40
27940;DHT22;15275;51.716;14.324;2023-02-19T06:19:01;7.70;84.50
27940;DHT22;15275;51.716;14.324;2023-02-19T06:21:28;7.60;84.80
27940;DHT22;15275;51.716;14.324;2023-02-19T06:23:54;7.50;85.00
27940;DHT22;15275;51.716;14.324;2023-02-19T06:26:22;7.40;85.10
27940;DHT22;15275;51.716;14.324;2023-02-19T06:28:50;7.30;85.10
27940;DHT22;15275;51.716;14.324;2023-02-19T06:31:18;7.20;85.30
27940;DHT22;15275;51.716;14.324;2023-02-19T06:33:45;7.20;85.60
27940;DHT22;15275;51.716;14.324;2023-02-19T06:36:13;7.10;85.50
27940;DHT22;15275;51.716;14.324;2023-02-19T06:38:41;7.00;85.50
27940;DHT22;15275;51.716;14.324;2023-02-19T06:41:07;7.00;85.30
27940;DHT22;15275;51.716;14.324;2023-02-19T06:43:34;6.90;85.50
27940;DHT22;15275;51.716;14.324;2023-02-19T06:46:02;6.80;85.50
27940;DHT22;15275;51.716;14.324;2023-02-19T06:48:30;6.80;85.70
27940;DHT22;15275;51.716;14.324;2023-02-19T06:50:57;6.70;85.70
27940;DHT22;15275;51.716;14.324;2023-02-19T06:53:23;6.70;85.80
27940;DHT22;15275;51.716;14.324;2023-02-19T06:56:18;6.70;85.80
27940;DHT22;15275;51.716;14.324;2023-02-19T06:58:59;6.60;85.70
27940;DHT22;15275;51.716;14.324;2023-02-19T07:01:28;6.60;86.00
27940;DHT22;15275;51.716;14.324;2023-02-19T07:03:54;6.50;86.20
27940;DHT22;15275;51.716;14.324;2023-02-19T07:06:22;6.50;86.30
27940;DHT22;15275;51.716;14.324;2023-02-19T07:08:49;6.50;86.50
27940;DHT22;15275;51.716;14.324;2023-02-19T07:11:16;6.50;86.80
27940;DHT22;15275;51.716;14.324;2023-02-19T07:13:43;6.60;86.90
27940;DHT22;15275;51.716;14.324;2023-02-19T07:16:10;6.60;87.10
27940;DHT22;15275;51.716;14.324;2023-02-19T07:18:39;6.60;87.10
27940;DHT22;15275;51.716;14.324;2023-02-19T07:21:07;6.70;87.20
27940;DHT22;15275;51.716;14.324;2023-02-19T07:23:34;6.70;87.20
27940;DHT22;15275;51.716;14.324;2023-02-19T07:26:01;6.70;87.20
27940;DHT22;15275;51.716;14.324;2023-02-19T07:28:27;6.80;87.00
27940;DHT22;15275;51.716;14.324;2023-02-19T07:30:53;6.80;86.90
27940;DHT22;15275;51.716;14.324;2023-02-19T07:33:19;6.80;86.90
27940;DHT22;15275;51.716;14.324;2023-02-19T07:35:47;6.80;86.80
27940;DHT22;15275;51.716;14.324;2023-02-19T07:38:18;6.80;86.80
27940;DHT22;15275;51.716;14.324;2023-02-19T07:40:53;6.80;86.80
27940;DHT22;15275;51.716;14.324;2023-02-19T07:43:20;6.80;86.70
27940;DHT22;15275;51.716;14.324;2023-02-19T07:45:48;6.70;86.70
27940;DHT22;15275;51.716;14.324;2023-02-19T07:48:14;6.70;86.70
27940;DHT22;15275;51.716;14.324;2023-02-19T07:50:40;6.70;86.80
27940;DHT22;15275;51.716;14.324;2023-02-19T07:53:06;6.70;86.90
27940;DHT22;15275;51.716;14.324;2023-02-19T07:55:33;6.70;86.90
27940;DHT22;15275;51.716;14.324;2023-02-19T07:57:59;6.70;86.90
27940;DHT22;15275;51.716;14.324;2023-02-19T08:00:26;6.70;86.90
27940;DHT22;15275;51.716;14.324;2023-02-19T08:02:52;6.70;86.90
27940;DHT22;15275;51.716;14.324;2023-02-19T08:05:29;6.70;87.00
27940;DHT22;15275;51.716;14.324;2023-02-19T08:07:57;6.80;87.20
27940;DHT22;15275;51.716;14.324;2023-02-19T08:10:24;6.80;87.20
27940;DHT22;15275;51.716;14.324;2023-02-19T08:13:14;6.80;87.40
27940;DHT22;15275;51.716;14.324;2023-02-19T08:15:44;6.90;87.60
27940;DHT22;15275;51.716;14.324;2023-02-19T08:18:14;6.90;87.70
27940;DHT22;15275;51.716;14.324;2023-02-19T08:20:41;7.00;87.80
27940;DHT22;15275;51.716;14.324;2023-02-19T08:23:08;7.00;87.70
27940;DHT22;15275;51.716;14.324;2023-02-19T08:25:35;7.10;87.60
27940;DHT22;15275;51.716;14.324;2023-02-19T08:28:01;7.20;87.60
27940;DHT22;15275;51.716;14.324;2023-02-19T08:30:28;7.20;87.60
27940;DHT22;15275;51.716;14.324;2023-02-19T08:32:57;7.30;87.50
27940;DHT22;15275;51.716;14.324;2023-02-19T08:35:24;7.30;87.60
27940;DHT22;15275;51.716;14.324;2023-02-19T08:37:50;7.40;87.50
27940;DHT22;15275;51.716;14.324;2023-02-19T08:40:16;7.40;87.30
27940;DHT22;15275;51.716;14.324;2023-02-19T08:42:42;7.40;87.20
27940;DHT22;15275;51.716;14.324;2023-02-19T08:45:08;7.50;87.10
27940;DHT22;15275;51.716;14.324;2023-02-19T08:47:34;7.50;87.00
27940;DHT22;15275;51.716;14.324;2023-02-19T08:50:01;7.60;86.70
27940;DHT22;15275;51.716;14.324;2023-02-19T08:52:29;7.60;87.00
27940;DHT22;15275;51.716;14.324;2023-02-19T08:54:55;7.70;87.10
27940;DHT22;15275;51.716;14.324;2023-02-19T08:57:21;7.70;86.80
27940;DHT22;15275;51.716;14.324;2023-02-19T08:59:47;7.80;86.70
27940;DHT22;15275;51.716;14.324;2023-02-19T09:02:13;7.80;86.60
27940;DHT22;15275;51.716;14.324;2023-02-19T09:04:38;7.80;86.60
27940;DHT22;15275;51.716;14.324;2023-02-19T09:07:05;7.90;86.50
27940;DHT22;15275;51.716;14.324;2023-02-19T09:09:38;7.90;86.30
27940;DHT22;15275;51.716;14.324;2023-02-19T09:12:09;7.90;86.30
27940;DHT22;15275;51.716;14.324;2023-02-19T09:14:36;7.90;86.30
27940;DHT22;15275;51.716;14.324;2023-02-19T09:17:04;7.90;86.40
27940;DHT22;15275;51.716;14.324;2023-02-19T09:19:31;8.00;86.70
27940;DHT22;15275;51.716;14.324;2023-02-19T09:21:58;8.00;86.50
27940;DHT22;15275;51.716;14.324;2023-02-19T09:24:24;8.00;86.20
27940;DHT22;15275;51.716;14.324;2023-02-19T09:26:51;8.00;86.30
27940;DHT22;15275;51.716;14.324;2023-02-19T09:29:18;8.00;86.20
27940;DHT22;15275;51.716;14.324;2023-02-19T09:31:44;8.10;86.30
27940;DHT22;15275;51.716;14.324;2023-02-19T09:34:10;8.10;86.20
27940;DHT22;15275;51.716;14.324;2023-02-19T09:36:37;8.10;86.30
27940;DHT22;15275;51.716;14.324;2023-02-19T09:39:04;8.10;86.40
27940;DHT22;15275;51.716;14.324;2023-02-19T09:44:48;8.20;86.30
27940;DHT22;15275;51.716;14.324;2023-02-19T09:47:21;8.20;86.70
27940;DHT22;15275;51.716;14.324;2023-02-19T09:49:53;8.30;86.70
27940;DHT22;15275;51.716;14.324;2023-02-19T09:52:53;8.30;86.50
27940;DHT22;15275;51.716;14.324;2023-02-19T09:55:37;8.40;86.20
27940;DHT22;15275;51.716;14.324;2023-02-19T09:58:29;8.40;86.50
27940;DHT22;15275;51.716;14.324;2023-02-19T10:01:00;8.50;85.70
27940;DHT22;15275;51.716;14.324;2023-02-19T10:03:37;8.50;86.50
27940;DHT22;15275;51.716;14.324;2023-02-19T10:06:21;8.60;85.80
27940;DHT22;15275;51.716;14.324;2023-02-19T10:08:51;8.70;85.50
27940;DHT22;15275;51.716;14.324;2023-02-19T10:11:19;8.70;85.90
27940;DHT22;15275;51.716;14.324;2023-02-19T10:16:21;8.80;85.40
27940;DHT22;15275;51.716;14.324;2023-02-19T10:18:50;8.90;85.40
27940;DHT22;15275;51.716;14.324;2023-02-19T10:21:21;8.90;85.30
27940;DHT22;15275;51.716;14.324;2023-02-19T10:23:56;9.00;85.30
27940;DHT22;15275;51.716;14.324;2023-02-19T10:26:24;9.00;84.90
27940;DHT22;15275;51.716;14.324;2023-02-19T10:28:51;9.00;84.80
27940;DHT22;15275;51.716;14.324;2023-02-19T10:31:21;9.10;84.80
27940;DHT22;15275;51.716;14.324;2023-02-19T10:33:55;9.10;84.30
27940;DHT22;15275;51.716;14.324;2023-02-19T10:36:36;9.10;84.10
27940;DHT22;15275;51.716;14.324;2023-02-19T10:41:56;9.10;83.00
27940;DHT22;15275;51.716;14.324;2023-02-19T10:44:40;9.10;84.10
27940;DHT22;15275;51.716;14.324;2023-02-19T10:47:07;9.10;83.10
27940;DHT22;15275;51.716;14.324;2023-02-19T10:49:40;9.00;83.50
27940;DHT22;15275;51.716;14.324;2023-02-19T10:54:49;9.00;83.60
27940;DHT22;15275;51.716;14.324;2023-02-19T10:59:51;9.00;83.90
27940;DHT22;15275;51.716;14.324;2023-02-19T11:02:20;9.00;83.40
27940;DHT22;15275;51.716;14.324;2023-02-19T11:07:35;9.00;82.50
27940;DHT22;15275;51.716;14.324;2023-02-19T11:10:03;9.10;83.70
27940;DHT22;15275;51.716;14.324;2023-02-19T11:12:33;9.10;83.70
27940;DHT22;15275;51.716;14.324;2023-02-19T11:15:27;9.10;83.30
27940;DHT22;15275;51.716;14.324;2023-02-19T11:18:09;9.20;81.80
27940;DHT22;15275;51.716;14.324;2023-02-19T11:20:48;9.20;83.00
27940;DHT22;15275;51.716;14.324;2023-02-19T11:23:37;9.30;83.30
27940;DHT22;15275;51.716;14.324;2023-02-19T11:26:20;9.30;82.70
27940;DHT22;15275;51.716;14.324;2023-02-19T11:28:56;9.30;82.30
27940;DHT22;15275;51.716;14.324;2023-02-19T11:31:30;9.30;82.60
27940;DHT22;15275;51.716;14.324;2023-02-19T11:33:59;9.30;82.90
27940;DHT22;15275;51.716;14.324;2023-02-19T11:36:33;9.30;82.70
27940;DHT22;15275;51.716;14.324;2023-02-19T11:39:26;9.40;82.30
27940;DHT22;15275;51.716;14.324;2023-02-19T11:50:45;9.40;81.60
27940;DHT22;15275;51.716;14.324;2023-02-19T11:53:31;9.40;82.10
27940;DHT22;15275;51.716;14.324;2023-02-19T12:11:07;9.50;82.60
27940;DHT22;15275;51.716;14.324;2023-02-19T12:14:03;9.60;82.70
27940;DHT22;15275;51.716;14.324;2023-02-19T12:19:54;9.70;82.10
27940;DHT22;15275;51.716;14.324;2023-02-19T12:22:45;9.70;80.80
27940;DHT22;15275;51.716;14.324;2023-02-19T12:25:28;9.70;81.60
27940;DHT22;15275;51.716;14.324;2023-02-19T12:36:50;9.80;79.80
27940;DHT22;15275;51.716;14.324;2023-02-19T12:45:05;9.90;79.00
27940;DHT22;15275;51.716;14.324;2023-02-19T12:47:45;9.90;80.70
27940;DHT22;15275;51.716;14.324;2023-02-19T12:50:25;9.90;80.90
27940;DHT22;15275;51.716;14.324;2023-02-19T12:53:04;10.00;80.60
27940;DHT22;15275;51.716;14.324;2023-02-19T12:55:43;10.00;80.40
27940;DHT22;15275;51.716;14.324;2023-02-19T12:58:34;10.00;79.30
27940;DHT22;15275;51.716;14.324;2023-02-19T13:01:04;9.90;78.10
27940;DHT22;15275;51.716;14.324;2023-02-19T13:03:38;9.90;79.80
27940;DHT22;15275;51.716;14.324;2023-02-19T13:08:57;9.90;80.20
27940;DHT22;15275;51.716;14.324;2023-02-19T13:11:37;9.90;79.10
27940;DHT22;15275;51.716;14.324;2023-02-19T13:14:33;9.90;80.20
27940;DHT22;15275;51.716;14.324;2023-02-19T13:17:15;9.90;80.10
27940;DHT22;15275;51.716;14.324;2023-02-19T13:19:57;10.00;79.70
27940;DHT22;15275;51.716;14.324;2023-02-19T13:26:08;10.20;77.00
27940;DHT22;15275;51.716;14.324;2023-02-19T13:29:11;10.30;78.50
27940;DHT22;15275;51.716;14.324;2023-02-19T13:37:40;10.60;78.10
27940;DHT22;15275;51.716;14.324;2023-02-19T13:40:31;10.60;78.90
27940;DHT22;15275;51.716;14.324;2023-02-19T13:43:02;10.60;77.20
27940;DHT22;15275;51.716;14.324;2023-02-19T13:45:39;10.60;77.20
27940;DHT22;15275;51.716;14.324;2023-02-19T13:50:49;10.70;75.00
27940;DHT22;15275;51.716;14.324;2023-02-19T14:04:20;11.00;74.80
27940;DHT22;15275;51.716;14.324;2023-02-19T14:14:38;11.00;76.40
27940;DHT22;15275;51.716;14.324;2023-02-19T14:23:14;10.90;73.00
27940;DHT22;15275;51.716;14.324;2023-02-19T14:25:53;10.90;74.30
27940;DHT22;15275;51.716;14.324;2023-02-19T14:28:32;10.80;74.90
27940;DHT22;15275;51.716;14.324;2023-02-19T14:31:27;10.80;74.60
27940;DHT22;15275;51.716;14.324;2023-02-19T14:34:15;10.70;72.40
27940;DHT22;15275;51.716;14.324;2023-02-19T14:36:58;10.70;74.40
27940;DHT22;15275;51.716;14.324;2023-02-19T14:39:32;10.70;75.10
27940;DHT22;15275;51.716;14.324;2023-02-19T14:42:01;10.60;75.30
27940;DHT22;15275;51.716;14.324;2023-02-19T14:44:36;10.60;76.00
27940;DHT22;15275;51.716;14.324;2023-02-19T14:47:20;10.60;76.20
27940;DHT22;15275;51.716;14.324;2023-02-19T14:55:07;10.70;75.20
27940;DHT22;15275;51.716;14.324;2023-02-19T14:57:41;10.70;75.70
27940;DHT22;15275;51.716;14.324;2023-02-19T15:00:34;10.70;76.10
27940;DHT22;15275;51.716;14.324;2023-02-19T15:03:05;10.70;74.60
27940;DHT22;15275;51.716;14.324;2023-02-19T15:05:35;10.60;76.40
27940;DHT22;15275;51.716;14.324;2023-02-19T15:08:14;10.60;75.50
27940;DHT22;15275;51.716;14.324;2023-02-19T15:10:43;10.50;74.70
27940;DHT22;15275;51.716;14.324;2023-02-19T15:13:10;10.50;75.80
27940;DHT22;15275;51.716;14.324;2023-02-19T15:15:43;10.40;75.20
27940;DHT22;15275;51.716;14.324;2023-02-19T15:18:29;10.40;74.90
27940;DHT22;15275;51.716;14.324;2023-02-19T15:21:03;10.30;73.60
27940;DHT22;15275;51.716;14.324;2023-02-19T15:23:31;10.20;75.20
27940;DHT22;15275;51.716;14.324;2023-02-19T15:25:58;10.20;75.60
27940;DHT22;15275;51.716;14.324;2023-02-19T15:31:03;10.10;75.00
27940;DHT22;15275;51.716;14.324;2023-02-19T15:33:32;10.10;74.30
27940;DHT22;15275;51.716;14.324;2023-02-19T15:36:00;10.00;75.40
27940;DHT22;15275;51.716;14.324;2023-02-19T15:38:28;10.00;75.40
27940;DHT22;15275;51.716;14.324;2023-02-19T15:40:54;9.90;75.50
27940;DHT22;15275;51.716;14.324;2023-02-19T15:43:47;9.90;75.30
27940;DHT22;15275;51.716;14.324;2023-02-19T15:46:22;9.80;72.50
27940;DHT22;15275;51.716;14.324;2023-02-19T15:51:34;9.70;75.20
27940;DHT22;15275;51.716;14.324;2023-02-19T15:54:12;9.70;73.30
27940;DHT22;15275;51.716;14.324;2023-02-19T15:56:52;9.60;74.50
27940;DHT22;15275;51.716;14.324;2023-02-19T15:59:25;9.60;75.10
27940;DHT22;15275;51.716;14.324;2023-02-19T16:01:54;9.50;75.20
27940;DHT22;15275;51.716;14.324;2023-02-19T16:04:21;9.50;75.20
27940;DHT22;15275;51.716;14.324;2023-02-19T16:07:01;9.40;74.50
27940;DHT22;15275;51.716;14.324;2023-02-19T16:09:34;9.40;74.40
27940;DHT22;15275;51.716;14.324;2023-02-19T16:12:03;9.30;75.30
27940;DHT22;15275;51.716;14.324;2023-02-19T16:14:44;9.30;75.40
27940;DHT22;15275;51.716;14.324;2023-02-19T16:17:13;9.20;75.20
27940;DHT22;15275;51.716;14.324;2023-02-19T16:19:46;9.20;75.40
27940;DHT22;15275;51.716;14.324;2023-02-19T16:22:16;9.20;75.60
27940;DHT22;15275;51.716;14.324;2023-02-19T16:24:59;9.20;75.40
27940;DHT22;15275;51.716;14.324;2023-02-19T16:27:39;9.20;74.40
27940;DHT22;15275;51.716;14.324;2023-02-19T16:30:08;9.20;74.90
27940;DHT22;15275;51.716;14.324;2023-02-19T16:36:42;9.10;74.40
27940;DHT22;15275;51.716;14.324;2023-02-19T16:39:15;9.10;73.80
27940;DHT22;15275;51.716;14.324;2023-02-19T16:44:32;9.00;75.60
27940;DHT22;15275;51.716;14.324;2023-02-19T16:49:30;9.00;75.40
27940;DHT22;15275;51.716;14.324;2023-02-19T16:52:00;8.90;75.20
27940;DHT22;15275;51.716;14.324;2023-02-19T16:54:27;8.90;75.30
27940;DHT22;15275;51.716;14.324;2023-02-19T16:56:53;8.80;75.20
27940;DHT22;15275;51.716;14.324;2023-02-19T16:59:18;8.70;75.20
27940;DHT22;15275;51.716;14.324;2023-02-19T17:01:44;8.70;75.10
27940;DHT22;15275;51.716;14.324;2023-02-19T17:04:11;8.60;75.30
27940;DHT22;15275;51.716;14.324;2023-02-19T17:06:39;8.50;75.10
27940;DHT22;15275;51.716;14.324;2023-02-19T17:09:06;8.50;75.20
27940;DHT22;15275;51.716;14.324;2023-02-19T17:11:33;8.40;75.10
27940;DHT22;15275;51.716;14.324;2023-02-19T17:14:00;8.30;75.20
27940;DHT22;15275;51.716;14.324;2023-02-19T17:16:29;8.30;75.20
27940;DHT22;15275;51.716;14.324;2023-02-19T17:18:58;8.20;75.20
27940;DHT22;15275;51.716;14.324;2023-02-19T17:21:29;8.10;75.20
27940;DHT22;15275;51.716;14.324;2023-02-19T17:23:56;8.00;75.20
27940;DHT22;15275;51.716;14.324;2023-02-19T17:26:25;8.00;75.30
27940;DHT22;15275;51.716;14.324;2023-02-19T17:28:54;7.90;75.50
27940;DHT22;15275;51.716;14.324;2023-02-19T17:31:20;7.80;75.60
27940;DHT22;15275;51.716;14.324;2023-02-19T17:33:46;7.70;75.70
27940;DHT22;15275;51.716;14.324;2023-02-19T17:36:39;7.70;75.70
27940;DHT22;15275;51.716;14.324;2023-02-19T17:39:08;7.60;74.50
27940;DHT22;15275;51.716;14.324;2023-02-19T17:41:39;7.50;74.40
27940;DHT22;15275;51.716;14.324;2023-02-19T17:44:05;7.50;76.20
27940;DHT22;15275;51.716;14.324;2023-02-19T17:46:31;7.40;76.20
27940;DHT22;15275;51.716;14.324;2023-02-19T17:48:58;7.30;76.20
27940;DHT22;15275;51.716;14.324;2023-02-19T17:51:24;7.20;76.30
27940;DHT22;15275;51.716;14.324;2023-02-19T17:53:49;7.20;76.30
27940;DHT22;15275;51.716;14.324;2023-02-19T17:56:18;7.10;76.40
27940;DHT22;15275;51.716;14.324;2023-02-19T17:58:45;7.10;76.50
27940;DHT22;15275;51.716;14.324;2023-02-19T18:01:11;7.00;76.60
27940;DHT22;15275;51.716;14.324;2023-02-19T18:03:37;7.00;76.70
27940;DHT22;15275;51.716;14.324;2023-02-19T18:06:04;6.90;76.60
27940;DHT22;15275;51.716;14.324;2023-02-19T18:08:30;6.90;76.80
27940;DHT22;15275;51.716;14.324;2023-02-19T18:10:55;6.80;76.80
27940;DHT22;15275;51.716;14.324;2023-02-19T18:13:21;6.80;76.90
27940;DHT22;15275;51.716;14.324;2023-02-19T18:15:47;6.80;76.90
27940;DHT22;15275;51.716;14.324;2023-02-19T18:18:13;6.70;76.90
27940;DHT22;15275;51.716;14.324;2023-02-19T18:20:39;6.70;77.00